Hlavní strana
METAR-TAF:

METAR-TAF

Letiště :

Saint-Denis, Réunion

zeměpisná šířka: 20-53S, zeměpisná délka: 055-31E, výška: 21 m

Aktuální stav počasí

Zpráva byla vytvořena před 35 minutami, v 01:30 UTC
Jihojihovýchodní vítr 14 kt
Teplota 21°C
Vlhkost vzduchu 56%
Tlak 1020 hPa
Viditelnost 10 km a více

METAR: FMEE 210130Z AUTO 15014KT 9999 BKN060/// 21/12 Q1020 NOSIG

Čas: 06:05 (02:05 UTC)

Předpověď počasí

Zpráva byla vytvořena před 3 hodinami a 5 minutami, v 23:00 UTC
Předpověď platná od 21 v 00 UTC do 22 v 06 UTC
Východojihovýchodní vítr 15 kt
Viditelnost 10 km a více
Zataženo ve výšce 5000 ft
Dočasný
od 21 v 04 UTC do 21 v 14 UTC
Jihovýchodní vítr 15 kt s nárazy do 30 kt

TAF: FMEE 202300Z 2100/2206 12015KT 9999 OVC050 TEMPO 2104/2114 14015G30KT

Stav a předpovědi počasí z více než 4 000 letišť (zprávy METAR a TAF).

Červené a žluté tečky na mapě představují dostupné meteorologické stanice.

Když kurzor umístíte na tečku, zobrazí se název stanice.

Pak kliknutím zobrazíte stav a předpověď počasí.

Chcete-li změnit mapu, kliknutím na zelené tlačítko se znaménkem +mapu přiblížíte, kliknutím na zelené tlačítko se znaménkem – mapu oddálíte a kliknutím na zelené šipky přejdete na sousední mapy.


METAR-TAF: